createdAt,value
2018-03-26T00:00:09.721Z,62.00
2018-03-26T00:02:38.002Z,62.40
2018-03-26T00:05:06.275Z,62.70
2018-03-26T00:07:34.554Z,62.90
2018-03-26T00:10:02.825Z,62.90
2018-03-26T00:12:31.077Z,63.10
2018-03-26T00:14:59.321Z,63.20
2018-03-26T00:17:27.573Z,63.30
2018-03-26T00:19:55.825Z,63.50
2018-03-26T00:22:24.074Z,63.60
2018-03-26T00:24:52.321Z,63.90
2018-03-26T00:27:20.653Z,63.90
2018-03-26T00:29:48.897Z,63.90
2018-03-26T00:32:17.146Z,63.90
2018-03-26T00:34:45.506Z,64.20
2018-03-26T00:37:13.720Z,64.40
2018-03-26T00:39:42.756Z,65.00
2018-03-26T00:42:11.020Z,65.00
2018-03-26T00:44:39.306Z,64.80
2018-03-26T00:47:07.569Z,64.60
2018-03-26T00:49:35.822Z,64.70
2018-03-26T00:52:04.069Z,64.80
2018-03-26T00:54:33.113Z,65.00
2018-03-26T00:57:01.417Z,65.00
2018-03-26T00:59:29.633Z,65.10
2018-03-26T01:01:57.892Z,65.40
2018-03-26T01:04:26.934Z,65.50
2018-03-26T01:06:55.213Z,65.50
2018-03-26T01:09:23.489Z,65.60
2018-03-26T01:11:51.741Z,65.70
2018-03-26T01:14:20.039Z,65.90
2018-03-26T01:16:48.290Z,65.90
2018-03-26T01:19:16.581Z,66.10
2018-03-26T01:21:44.864Z,66.40
2018-03-26T01:24:13.101Z,66.70
2018-03-26T01:26:42.109Z,67.60
2018-03-26T01:29:10.392Z,67.60
2018-03-26T01:31:38.642Z,67.70
2018-03-26T01:34:07.640Z,67.70
2018-03-26T01:36:35.887Z,67.60
2018-03-26T01:39:04.133Z,67.80
2018-03-26T01:41:32.387Z,68.00
2018-03-26T01:44:00.660Z,68.20
2018-03-26T01:46:28.946Z,68.40
2018-03-26T01:48:57.212Z,68.20
2018-03-26T01:51:25.457Z,68.40
2018-03-26T01:53:54.489Z,68.50
2018-03-26T01:56:22.732Z,68.40
2018-03-26T01:58:50.981Z,68.50
2018-03-26T02:01:19.220Z,68.70
2018-03-26T02:03:47.474Z,68.80
2018-03-26T02:06:15.719Z,68.90
2018-03-26T02:08:44.734Z,69.20
2018-03-26T02:11:12.976Z,69.20
2018-03-26T02:13:41.294Z,69.20
2018-03-26T02:16:09.537Z,69.20
2018-03-26T02:18:38.578Z,69.30
2018-03-26T02:21:06.821Z,69.20
2018-03-26T02:23:35.114Z,69.30
2018-03-26T02:26:03.359Z,69.40
2018-03-26T02:28:32.383Z,69.70
2018-03-26T02:31:00.670Z,69.70
2018-03-26T02:33:28.936Z,69.80
2018-03-26T02:35:57.173Z,69.90
2018-03-26T02:38:26.189Z,70.10
2018-03-26T02:40:54.434Z,70.10
2018-03-26T02:43:23.437Z,70.40
2018-03-26T02:45:52.469Z,70.30
2018-03-26T02:48:21.612Z,70.30
2018-03-26T02:50:50.661Z,70.60
2018-03-26T02:53:18.923Z,70.60
2018-03-26T02:55:47.197Z,70.60
2018-03-26T02:58:15.442Z,70.60
2018-03-26T03:00:44.452Z,70.80
2018-03-26T03:03:12.698Z,70.70
2018-03-26T03:05:40.939Z,70.80
2018-03-26T03:08:09.194Z,70.80
2018-03-26T03:10:37.478Z,70.60
2018-03-26T03:13:05.709Z,70.40
2018-03-26T03:15:34.718Z,70.10
2018-03-26T03:18:03.008Z,70.10
2018-03-26T03:20:31.253Z,70.20
2018-03-26T03:23:00.272Z,70.10
2018-03-26T03:25:28.551Z,70.00
2018-03-26T03:27:56.794Z,70.00
2018-03-26T03:30:25.811Z,69.70
2018-03-26T03:32:54.040Z,69.70
2018-03-26T03:35:22.489Z,69.60
2018-03-26T03:37:50.723Z,69.30
2018-03-26T03:40:19.736Z,69.40
2018-03-26T03:42:48.025Z,69.40
2018-03-26T03:45:16.313Z,69.20
2018-03-26T03:47:44.588Z,69.20
2018-03-26T03:50:12.828Z,69.10
2018-03-26T03:52:41.071Z,69.30
2018-03-26T03:55:09.405Z,69.00
2018-03-26T03:57:37.678Z,69.20
2018-03-26T04:00:05.987Z,69.10
2018-03-26T04:02:34.187Z,69.10
2018-03-26T04:05:03.321Z,69.10
2018-03-26T04:07:31.705Z,69.90
2018-03-26T04:09:59.944Z,69.30
2018-03-26T04:12:28.957Z,69.10
2018-03-26T04:14:57.239Z,69.20
2018-03-26T04:17:25.565Z,69.10
2018-03-26T04:19:53.772Z,69.00
2018-03-26T04:22:22.090Z,69.20
2018-03-26T04:24:50.340Z,68.30
2018-03-26T04:27:18.617Z,67.70
2018-03-26T04:29:46.865Z,67.60
2018-03-26T04:32:15.168Z,67.70
2018-03-26T04:34:43.404Z,67.80
2018-03-26T04:37:12.443Z,68.30
2018-03-26T04:39:40.725Z,68.20
2018-03-26T04:42:08.964Z,68.20
2018-03-26T04:44:37.264Z,68.30
2018-03-26T04:47:05.501Z,68.10
2018-03-26T04:49:34.508Z,68.00
2018-03-26T04:52:02.753Z,67.90
2018-03-26T04:54:30.988Z,68.10
2018-03-26T04:56:59.233Z,68.30
2018-03-26T04:59:27.633Z,68.70
2018-03-26T05:01:55.904Z,68.70
2018-03-26T05:04:24.180Z,68.90
2018-03-26T05:06:52.415Z,69.00
2018-03-26T05:09:21.548Z,69.40
2018-03-26T05:11:49.823Z,69.30
2018-03-26T05:14:18.071Z,69.50
2018-03-26T05:16:47.068Z,69.60
2018-03-26T05:19:15.369Z,69.50
2018-03-26T05:21:43.644Z,69.50
2018-03-26T05:24:11.920Z,69.40
2018-03-26T05:26:40.201Z,69.50
2018-03-26T05:29:08.468Z,69.60
2018-03-26T05:31:36.745Z,69.60
2018-03-26T05:34:05.020Z,69.60
2018-03-26T05:36:33.297Z,69.60
2018-03-26T05:39:01.624Z,69.20
2018-03-26T05:41:29.948Z,69.20
2018-03-26T05:43:58.188Z,69.30
2018-03-26T05:46:27.225Z,69.30
2018-03-26T05:48:55.469Z,69.30
2018-03-26T05:51:23.773Z,69.30
2018-03-26T05:53:52.008Z,69.30
2018-03-26T05:56:21.028Z,69.80
2018-03-26T05:58:49.269Z,69.80
2018-03-26T06:01:18.276Z,70.30
2018-03-26T06:03:47.295Z,70.40
2018-03-26T06:06:15.520Z,70.30
2018-03-26T06:08:43.767Z,70.50
2018-03-26T06:11:12.020Z,70.70
2018-03-26T06:13:40.292Z,70.70
2018-03-26T06:16:08.551Z,70.70
2018-03-26T06:18:36.796Z,70.70
2018-03-26T06:21:05.031Z,70.60
2018-03-26T06:23:33.298Z,70.70
2018-03-26T06:26:01.527Z,71.10
2018-03-26T06:28:30.566Z,71.70
2018-03-26T06:30:58.800Z,71.70
2018-03-26T06:33:27.804Z,72.00
2018-03-26T06:35:56.054Z,72.10
2018-03-26T06:38:29.280Z,72.60
2018-03-26T06:40:57.527Z,73.10
2018-03-26T06:43:26.532Z,73.40
2018-03-26T06:45:55.572Z,73.20
2018-03-26T06:48:23.829Z,73.10
2018-03-26T06:50:52.237Z,73.30
2018-03-26T06:53:20.483Z,73.30
2018-03-26T06:55:48.809Z,73.30
2018-03-26T06:58:17.025Z,73.30
2018-03-26T07:00:45.316Z,73.30
2018-03-26T07:03:13.560Z,73.60
2018-03-26T07:05:42.577Z,74.10
2018-03-26T07:08:10.853Z,74.00
2018-03-26T07:10:39.132Z,74.20
2018-03-26T07:13:08.213Z,74.70
2018-03-26T07:15:36.599Z,75.00
2018-03-26T07:18:04.858Z,75.50
2018-03-26T07:20:33.091Z,76.40
2018-03-26T07:23:01.532Z,77.00
2018-03-26T07:25:29.767Z,77.30
2018-03-26T07:27:58.796Z,77.70
2018-03-26T07:30:27.077Z,77.80
2018-03-26T07:32:55.352Z,77.90
2018-03-26T07:35:23.584Z,77.90
2018-03-26T07:37:52.624Z,78.00
2018-03-26T07:40:20.900Z,78.00
2018-03-26T07:42:49.165Z,78.00
2018-03-26T07:45:17.399Z,77.70
2018-03-26T07:47:46.424Z,77.80
2018-03-26T07:50:14.708Z,77.80
2018-03-26T07:52:42.958Z,77.60
2018-03-26T07:55:11.956Z,76.80
2018-03-26T07:57:40.365Z,76.80
2018-03-26T08:00:08.609Z,76.50
2018-03-26T08:02:36.911Z,76.20
2018-03-26T08:05:05.152Z,76.20
2018-03-26T08:07:34.178Z,75.50
2018-03-26T08:10:02.447Z,75.40
2018-03-26T08:12:30.723Z,74.60
2018-03-26T08:14:58.972Z,74.50
2018-03-26T08:17:27.972Z,73.50
2018-03-26T08:19:56.217Z,73.50
2018-03-26T08:22:24.464Z,72.90
2018-03-26T08:24:52.709Z,72.50
2018-03-26T08:27:20.943Z,72.50
2018-03-26T08:29:49.268Z,72.70
2018-03-26T08:32:17.500Z,72.60
2018-03-26T08:34:46.642Z,71.40
2018-03-26T08:37:14.885Z,71.30
2018-03-26T08:39:43.900Z,71.00
2018-03-26T08:42:12.261Z,70.90
2018-03-26T08:44:40.420Z,70.50
2018-03-26T08:47:09.432Z,69.60
2018-03-26T08:49:37.724Z,69.60
2018-03-26T08:52:05.963Z,69.40
2018-03-26T08:54:35.008Z,69.20
2018-03-26T08:57:03.373Z,69.20
2018-03-26T08:59:31.642Z,69.00
2018-03-26T09:01:59.920Z,68.80
2018-03-26T09:04:28.192Z,68.60
2018-03-26T09:06:56.474Z,68.50
2018-03-26T09:09:24.724Z,68.00
2018-03-26T09:11:52.994Z,67.80
2018-03-26T09:14:22.010Z,67.40
2018-03-26T09:16:50.332Z,67.40
2018-03-26T09:19:18.978Z,67.70
2018-03-26T09:21:47.252Z,67.60
2018-03-26T09:24:15.501Z,66.90
2018-03-26T09:26:43.744Z,66.40
2018-03-26T09:29:12.077Z,66.80
2018-03-26T09:31:40.677Z,67.50
2018-03-26T09:34:19.777Z,69.30
2018-03-26T09:36:48.021Z,69.20
2018-03-26T09:39:17.033Z,70.90
2018-03-26T09:41:45.323Z,71.00
2018-03-26T09:44:13.568Z,71.90
2018-03-26T09:46:42.592Z,72.40
2018-03-26T09:49:10.838Z,72.40
2018-03-26T09:51:39.863Z,72.20
2018-03-26T09:54:08.136Z,72.10
2018-03-26T09:56:36.372Z,71.20
2018-03-26T09:59:05.380Z,67.00
2018-03-26T10:01:33.628Z,66.90
2018-03-26T10:04:01.961Z,64.80
2018-03-26T10:06:30.236Z,63.30
2018-03-26T10:08:58.491Z,62.20
2018-03-26T10:11:26.734Z,63.40
2018-03-26T10:13:54.971Z,64.60
2018-03-26T10:16:23.593Z,65.50
2018-03-26T10:18:52.642Z,67.10
2018-03-26T10:21:20.917Z,67.60
2018-03-26T10:23:49.182Z,68.10
2018-03-26T10:26:17.670Z,68.60
2018-03-26T10:28:45.939Z,68.10
2018-03-26T10:31:14.250Z,68.20
2018-03-26T10:33:42.428Z,66.60
2018-03-26T10:36:10.764Z,64.00
2018-03-26T10:38:39.040Z,62.40
2018-03-26T10:41:07.289Z,60.70
2018-03-26T10:43:36.308Z,63.30
2018-03-26T10:46:04.552Z,63.40
2018-03-26T10:48:33.563Z,65.50
2018-03-26T10:51:01.868Z,65.40
2018-03-26T10:53:30.836Z,66.90
2018-03-26T10:55:59.127Z,66.90
2018-03-26T10:58:27.376Z,67.40
2018-03-26T11:00:55.705Z,65.00
2018-03-26T11:03:23.948Z,64.90
2018-03-26T11:05:52.224Z,63.60
2018-03-26T11:08:20.476Z,62.30
2018-03-26T11:10:48.781Z,62.70
2018-03-26T11:13:17.032Z,62.40
2018-03-26T11:15:45.276Z,60.70
2018-03-26T11:18:13.552Z,59.90
2018-03-26T11:20:42.601Z,56.60
2018-03-26T11:23:10.864Z,56.60
2018-03-26T11:25:39.153Z,56.70
2018-03-26T11:28:07.416Z,57.00
2018-03-26T11:30:35.665Z,57.10
2018-03-26T11:33:03.914Z,56.80
2018-03-26T11:35:32.156Z,56.30
2018-03-26T11:38:00.399Z,55.60
2018-03-26T11:40:28.651Z,56.50
2018-03-26T11:42:57.684Z,56.90
2018-03-26T11:45:25.936Z,56.80
2018-03-26T11:47:54.284Z,56.70
2018-03-26T11:50:22.540Z,56.30
2018-03-26T11:52:50.752Z,56.30
2018-03-26T11:55:19.772Z,54.90
2018-03-26T11:57:48.014Z,54.90
2018-03-26T12:00:17.058Z,53.00
2018-03-26T12:02:45.324Z,53.00
2018-03-26T12:05:13.606Z,53.50
2018-03-26T12:07:41.877Z,53.50
2018-03-26T12:10:10.125Z,53.10
2018-03-26T12:12:38.430Z,53.30
2018-03-26T12:15:06.701Z,53.20
2018-03-26T12:17:34.952Z,54.10
2018-03-26T12:20:15.041Z,54.80
2018-03-26T12:22:43.292Z,54.80
2018-03-26T12:25:12.463Z,55.10
2018-03-26T12:27:53.367Z,53.10
2018-03-26T12:30:25.228Z,53.10
2018-03-26T12:32:53.489Z,52.80
2018-03-26T12:35:33.756Z,53.20
2018-03-26T12:38:02.040Z,53.50
2018-03-26T12:40:42.305Z,53.40
2018-03-26T12:43:10.548Z,53.40
2018-03-26T12:45:50.773Z,53.70
2018-03-26T12:48:19.784Z,54.10
2018-03-26T12:51:00.064Z,54.00
2018-03-26T12:53:28.316Z,55.00
2018-03-26T12:55:56.630Z,55.00
2018-03-26T12:58:36.772Z,54.90
2018-03-26T13:01:17.044Z,55.10
2018-03-26T13:03:45.293Z,55.80
2018-03-26T13:06:13.580Z,55.70
2018-03-26T13:08:41.837Z,56.00
2018-03-26T13:11:10.129Z,54.00
2018-03-26T13:13:38.376Z,53.90
2018-03-26T13:16:07.394Z,54.50
2018-03-26T13:18:35.645Z,54.50
2018-03-26T13:21:03.896Z,54.80
2018-03-26T13:23:33.664Z,54.90
2018-03-26T13:26:01.936Z,54.90
2018-03-26T13:28:30.204Z,53.60
2018-03-26T13:30:58.494Z,53.90
2018-03-26T13:33:26.741Z,53.90
2018-03-26T13:35:54.993Z,53.50
2018-03-26T13:38:24.012Z,53.80
2018-03-26T13:40:52.300Z,53.80
2018-03-26T13:43:20.540Z,54.10
2018-03-26T13:45:49.555Z,55.00
2018-03-26T13:48:17.804Z,55.00
2018-03-26T13:50:46.816Z,52.70
2018-03-26T13:53:15.120Z,52.60
2018-03-26T13:55:43.392Z,52.30
2018-03-26T13:58:11.714Z,52.80
2018-03-26T14:00:40.041Z,52.80
2018-03-26T14:03:08.316Z,54.00
2018-03-26T14:05:36.556Z,54.60
2018-03-26T14:08:05.636Z,53.10
2018-03-26T14:10:45.944Z,53.10
2018-03-26T14:13:26.107Z,53.00
2018-03-26T14:16:06.248Z,53.80
2018-03-26T14:18:34.482Z,53.90
2018-03-26T14:21:03.479Z,55.80
2018-03-26T14:23:32.494Z,54.60
2018-03-26T14:26:01.144Z,54.50
2018-03-26T14:28:29.364Z,55.50
2018-03-26T14:30:57.639Z,54.90
2018-03-26T14:33:25.970Z,54.30
2018-03-26T14:35:54.192Z,54.60
2018-03-26T14:38:22.473Z,54.80
2018-03-26T14:40:50.712Z,54.70
2018-03-26T14:43:19.733Z,53.00
2018-03-26T14:45:48.023Z,53.00
2018-03-26T14:48:16.292Z,52.90
2018-03-26T14:50:44.534Z,52.60
2018-03-26T14:53:13.538Z,52.00
2018-03-26T14:55:41.832Z,51.90
2018-03-26T14:58:10.112Z,52.80
2018-03-26T15:00:39.264Z,53.80
2018-03-26T15:03:08.294Z,54.50
2018-03-26T15:05:36.568Z,54.40
2018-03-26T15:08:04.795Z,54.60
2018-03-26T15:10:33.041Z,54.90
2018-03-26T15:13:01.446Z,54.90
2018-03-26T15:15:29.794Z,54.70
2018-03-26T15:17:58.061Z,53.90
2018-03-26T15:20:26.300Z,52.80
2018-03-26T15:22:55.292Z,51.70
2018-03-26T15:25:24.364Z,52.00
2018-03-26T15:27:52.578Z,52.10
2018-03-26T15:30:20.828Z,53.30
2018-03-26T15:32:49.062Z,54.10
2018-03-26T15:35:17.317Z,54.70
2018-03-26T15:37:45.584Z,55.00
2018-03-26T15:40:13.855Z,55.10
2018-03-26T15:42:42.138Z,55.20
2018-03-26T15:45:10.382Z,55.70
2018-03-26T15:47:39.388Z,56.70
2018-03-26T15:50:07.676Z,56.70
2018-03-26T15:52:35.912Z,56.40
2018-03-26T15:55:04.924Z,56.80
2018-03-26T15:57:33.517Z,56.80
2018-03-26T16:00:02.064Z,57.60
2018-03-26T16:02:35.909Z,57.90
2018-03-26T16:05:04.193Z,58.00
2018-03-26T16:07:33.089Z,58.40
2018-03-26T16:10:01.352Z,58.80
2018-03-26T16:12:29.633Z,58.30
2018-03-26T16:14:57.864Z,57.80
2018-03-26T16:17:26.909Z,58.90
2018-03-26T16:19:55.115Z,58.40
2018-03-26T16:22:23.343Z,57.70
2018-03-26T16:24:51.589Z,57.00
2018-03-26T16:27:20.621Z,56.30
2018-03-26T16:29:48.892Z,56.30
2018-03-26T16:32:17.164Z,56.90
2018-03-26T16:34:46.312Z,57.60
2018-03-26T16:37:14.536Z,58.10
2018-03-26T16:39:42.775Z,58.80
2018-03-26T16:42:20.813Z,59.60
2018-03-26T16:44:49.065Z,59.70
2018-03-26T16:47:18.080Z,59.00
2018-03-26T16:49:46.351Z,59.00
2018-03-26T16:52:14.642Z,59.30
2018-03-26T16:54:42.911Z,59.10
2018-03-26T16:57:11.179Z,58.70
2018-03-26T16:59:39.464Z,59.00
2018-03-26T17:02:07.736Z,59.60
2018-03-26T17:04:36.017Z,60.50
2018-03-26T17:07:04.254Z,60.80
2018-03-26T17:09:33.252Z,62.70
2018-03-26T17:12:02.272Z,63.60
2018-03-26T17:14:30.548Z,63.60
2018-03-26T17:16:58.829Z,64.40
2018-03-26T17:19:27.092Z,65.20
2018-03-26T17:21:55.381Z,66.20
2018-03-26T17:24:23.612Z,66.60
2018-03-26T17:26:52.752Z,68.00
2018-03-26T17:29:20.988Z,68.00
2018-03-26T17:31:50.000Z,70.30
2018-03-26T17:34:18.289Z,70.20
2018-03-26T17:36:46.545Z,71.40
2018-03-26T17:39:14.837Z,73.20
2018-03-26T17:41:43.092Z,74.70
2018-03-26T17:44:11.328Z,76.10
2018-03-26T17:46:39.678Z,77.50
2018-03-26T17:49:07.941Z,78.60
2018-03-26T17:51:36.184Z,79.70
2018-03-26T17:54:05.211Z,81.50
2018-03-26T17:56:33.484Z,81.50
2018-03-26T17:59:01.737Z,82.40
2018-03-26T18:01:30.032Z,83.00
2018-03-26T18:03:58.276Z,83.50
2018-03-26T18:06:27.309Z,84.60
2018-03-26T18:08:55.548Z,85.30
2018-03-26T18:11:24.572Z,85.40
2018-03-26T18:13:52.865Z,85.40
2018-03-26T18:16:21.099Z,85.60
2018-03-26T18:18:49.398Z,86.00
2018-03-26T18:21:17.644Z,86.10
2018-03-26T18:23:45.948Z,86.50
2018-03-26T18:26:14.196Z,86.70
2018-03-26T18:28:42.496Z,86.70
2018-03-26T18:31:10.749Z,86.70
2018-03-26T18:33:39.757Z,87.10
2018-03-26T18:36:08.014Z,87.10
2018-03-26T18:38:37.012Z,87.80
2018-03-26T18:41:05.314Z,87.70
2018-03-26T18:43:33.623Z,87.80
2018-03-26T18:46:01.973Z,87.70
2018-03-26T18:48:30.214Z,87.50
2018-03-26T18:50:58.484Z,86.80
2018-03-26T18:53:27.514Z,86.70
2018-03-26T18:55:55.784Z,86.60
2018-03-26T18:58:24.029Z,86.20
2018-03-26T19:00:53.062Z,85.30
2018-03-26T19:03:21.301Z,85.30
2018-03-26T19:05:49.615Z,84.70
2018-03-26T19:08:17.859Z,85.10
2018-03-26T19:10:46.148Z,84.30
2018-03-26T19:13:14.392Z,83.70
2018-03-26T19:15:43.396Z,82.70
2018-03-26T19:18:11.652Z,82.80
2018-03-26T19:20:40.670Z,83.20
2018-03-26T19:23:09.681Z,83.30
2018-03-26T19:25:37.959Z,83.30
2018-03-26T19:28:06.237Z,83.60
2018-03-26T19:30:34.472Z,83.50
2018-03-26T19:33:03.752Z,83.60
2018-03-26T19:35:33.713Z,83.50
2018-03-26T19:38:01.996Z,83.40
2018-03-26T19:40:30.232Z,83.20
2018-03-26T19:42:59.260Z,83.00
2018-03-26T19:45:27.508Z,83.00
2018-03-26T19:47:56.533Z,83.60
2018-03-26T19:50:24.785Z,83.60
2018-03-26T19:52:53.075Z,83.90
2018-03-26T19:55:21.362Z,84.10
2018-03-26T19:57:49.632Z,83.90
2018-03-26T20:00:17.884Z,83.90
2018-03-26T20:02:46.189Z,84.00
2018-03-26T20:05:14.526Z,84.10
2018-03-26T20:07:42.696Z,84.10
2018-03-26T20:10:11.823Z,83.10
2018-03-26T20:12:40.104Z,83.10
2018-03-26T20:15:08.384Z,83.10
2018-03-26T20:17:36.628Z,83.00
2018-03-26T20:20:04.933Z,82.70
2018-03-26T20:22:33.205Z,82.70
2018-03-26T20:25:01.489Z,82.60
2018-03-26T20:27:29.732Z,83.00
2018-03-26T20:29:57.968Z,82.80
2018-03-26T20:32:26.304Z,83.30
2018-03-26T20:34:54.540Z,83.50
2018-03-26T20:37:23.569Z,84.30
2018-03-26T20:39:51.808Z,84.30
2018-03-26T20:42:20.843Z,85.00
2018-03-26T20:44:49.111Z,85.00
2018-03-26T20:47:17.392Z,85.20
2018-03-26T20:49:45.633Z,85.30
2018-03-26T20:52:14.665Z,86.00
2018-03-26T20:54:42.912Z,86.00
2018-03-26T20:57:11.218Z,86.10
2018-03-26T20:59:39.460Z,86.40
2018-03-26T21:02:07.774Z,86.60
2018-03-26T21:04:36.036Z,87.00
2018-03-26T21:07:04.288Z,87.30
2018-03-26T21:09:32.532Z,87.30
2018-03-26T21:12:00.860Z,87.60
2018-03-26T21:14:29.104Z,87.90
2018-03-26T21:16:58.103Z,88.20
2018-03-26T21:19:26.412Z,88.20
2018-03-26T21:21:54.648Z,88.30
2018-03-26T21:24:23.672Z,88.70
2018-03-26T21:26:52.596Z,88.70
2018-03-26T21:29:20.831Z,88.80
2018-03-26T21:31:49.085Z,89.00
2018-03-26T21:34:18.093Z,89.40
2018-03-26T21:36:46.342Z,89.50
2018-03-26T21:39:15.385Z,89.60
2018-03-26T21:41:43.654Z,89.60
2018-03-26T21:44:11.923Z,89.60
2018-03-26T21:46:40.213Z,89.80
2018-03-26T21:49:08.444Z,89.70
2018-03-26T21:51:37.464Z,90.10
2018-03-26T21:54:05.706Z,90.00
2018-03-26T21:56:34.715Z,90.30
2018-03-26T21:59:03.008Z,90.30
2018-03-26T22:01:31.294Z,90.20
2018-03-26T22:03:59.535Z,90.20
2018-03-26T22:06:27.836Z,90.20
2018-03-26T22:08:56.112Z,90.40
2018-03-26T22:11:24.402Z,90.50
2018-03-26T22:13:52.869Z,90.50
2018-03-26T22:16:21.140Z,90.60
2018-03-26T22:18:49.426Z,90.70
2018-03-26T22:21:17.668Z,90.70
2018-03-26T22:23:45.915Z,90.80
2018-03-26T22:26:14.249Z,90.80
2018-03-26T22:28:42.491Z,90.80
2018-03-26T22:31:11.511Z,90.80
2018-03-26T22:33:39.763Z,90.80
2018-03-26T22:36:08.000Z,90.90
2018-03-26T22:38:36.236Z,91.00
2018-03-26T22:41:04.483Z,91.10
2018-03-26T22:43:33.512Z,91.10
2018-03-26T22:46:01.769Z,91.10
2018-03-26T22:48:30.005Z,91.10
2018-03-26T22:50:58.262Z,91.10
2018-03-26T22:53:26.528Z,91.40
2018-03-26T22:55:54.800Z,91.10
2018-03-26T22:58:23.061Z,91.20
2018-03-26T23:00:51.328Z,91.10
2018-03-26T23:03:19.612Z,91.10
2018-03-26T23:05:47.985Z,91.10
2018-03-26T23:08:16.216Z,91.10
2018-03-26T23:10:45.220Z,91.10
2018-03-26T23:13:14.226Z,91.20
2018-03-26T23:15:42.525Z,91.20
2018-03-26T23:18:10.798Z,91.20
2018-03-26T23:20:39.081Z,91.20
2018-03-26T23:23:07.316Z,91.30
2018-03-26T23:25:36.336Z,91.30
2018-03-26T23:28:04.607Z,91.30
2018-03-26T23:30:32.846Z,91.30
2018-03-26T23:33:01.877Z,91.40
2018-03-26T23:35:30.107Z,91.40
2018-03-26T23:37:58.344Z,91.30
2018-03-26T23:40:26.586Z,91.30
2018-03-26T23:42:54.830Z,91.30
2018-03-26T23:45:23.063Z,91.20
2018-03-26T23:47:51.309Z,91.20
2018-03-26T23:50:19.610Z,91.20
2018-03-26T23:52:47.883Z,91.40
2018-03-26T23:55:16.112Z,91.40
2018-03-26T23:57:45.108Z,91.30
